Terminal Aerodrome Forecast
Issued by NWS North Platte, NE

Home | Current Version | Previous Version | Graphics & Text | Print | Product List | Glossary On
Versions: 1 2 3 4 5 6 7 8 9 10 11 12 13 14 15 16 17
000
FTUS43 KLBF 311849 RRA
TAFVTN
TAF
KVTN 311849Z 3119/0118 33013G19KT P6SM SCT120 BKN150
     FM312200 35010KT P6SM BKN120 BKN150
     FM010200 VRB06KT P6SM VCTS BKN120CB=

USA.gov is the U.S. government's official web portal to all federal, state and local government web resources and services.